timestamp,station,temperature_C,wind_speed_kmh,humidity_pct,pressure
_hPa
2026-01-01 00:00,São Paulo,23.4,9,78,1011
timestamp,station,temperature_C,wind_speed_kmh,humidity_pct,pressure
_hPa
2026-01-01 00:00,São Paulo,23.4,9,78,1011
2026-01-01 00:00,Buenos Aires,19.2,14,65,1013
2026-01-01 00:00,Santiago,16.8,12,58,1015
timestamp,station,temperature_C,wind_speed_kmh,humidity_pct,pressure
_hPa
2026-01-01 00:00,São Paulo,23.4,9,78,1011
2026-01-01 00:00,Buenos Aires,19.2,14,65,1013
timestamp,station,temperature_C,wind_speed_kmh,humidity_pct,pressure
_hPa
2026-01-01 00:00,São Paulo,23.4,9,78,1011
2026-01-01 00:00,Buenos Aires,19.2,14,65,1013
2026-01-01 00:00,Santiago,16.8,12,58,1015
timestamp,station,temperature_C,wind_speed_kmh,humidity_pct,pressure
_hPa
2026-01-01 00:00,São Paulo,23.4,9,78,1011
2026-01-01 00:00,Buenos Aires,19.2,14,65,1013
timestamp,station,temperature_C,wind_speed_kmh,humidity_pct,pressure
_hPa
2026-01-01 00:00,São Paulo,23.4,9,78,1011
2026-01-01 00:00,Buenos Aires,19.2,14,65,1013
2026-01-01 00:00,Santiago,16.8,12,58,1015
2026-01-01 00:00,Lima,21.0,10,82,1012
2026-01-01 00:00,Bogotá,14.5,8,72,1017
2026-01-01 01:00,São Paulo,23.0,8,79,1010
2026-01-01 01:00,Buenos Aires,18.9,13,66,1014
2026-01-01 01:00,Santiago,16.5,11
2026-01-01 00:00,Santiago,16.8,12,58,1015
2026-01-01 00:00,Lima,21.0,10,82,1012
2026-01-01 00:00,Bogotá,14.5,8,72,1017
2026-01-01 01:00,São Paulo,23.0,8,79,1010
2026-01-01 01:00,Buenos Aires,18.9,13,66,1014
2026-01-01 01:00,Santiago,16.5,11
2026-01-01 00:00,Lima,21.0,10,82,1012
2026-01-01 00:00,Bogotá,14.5,8,72,1017
2026-01-01 01:00,São Paulo,23.0,8,79,1010
2026-01-01 01:00,Buenos Aires,18.9,13,66,1014
2026-01-01 01:00,Santiago,16.5,11
2026-01-01 00:00,Santiago,16.8,12,58,1015
2026-01-01 00:00,Lima,21.0,10,82,1012
2026-01-01 00:00,Bogotá,14.5,8,72,1017
2026-01-01 01:00,São Paulo,23.0,8,79,1010
timestamp,station,temperature_C,wind_speed_kmh,humidity_pct,pressure
_hPa
2026-01-01 00:00,São Paulo,23.4,9,78,1011
2026-01-01 00:00,Buenos Aires,19.2,14,65,1013
2026-01-01 00:00,Santiago,16.8,12,58,1015
2026-01-01 00:00,Lima,21.0,10,82,1012
2026-01-01 00:00,Bogotá,14.5,8,72,1017
2026-01-01 01:00,São Paulo,23.0,8,79,1010
timestamp,station,temperature_C,wind_speed_kmh,humidity_pct,pressure
_hPa
2026-01-01 00:00,São Paulo,23.4,9,78,1011
2026-01-01 00:00,Buenos Aires,19.2,14,65,1013
2026-01-01 00:00,Santiago,16.8,12,58,1015
2026-01-01 00:00,Lima,21.0,10,82,1012
2026-01-01 00:00,Bogotá,14.5,8,72,1017
2026-01-01 01:00,São Paulo,23.0,8,79,1010
2026-01-01 01:00,Buenos Aires,18.9,13,66,1014
2026-01-01 01:00,Santiago,16.5,11
2026-01-01 01:00,Buenos Aires,18.9,13,66,1014
timestamp,station,temperature_C,wind_speed_kmh,humidity_pct,pressure
_hPa
2026-01-01 00:00,São Paulo,23.4,9,78,1011
2026-01-01 00:00,Buenos Aires,19.2,14,65,1013
2026-01-01 00:00,Santiago,16.8,12,58,1015
2026-01-01 00:00,Lima,21.0,10,82,1012
2026-01-01 00:00,Bogotá,14.5,8,72,1017
2026-01-01 01:00,São Paulo,23.0,8,79,1010
2026-01-01 01:00,Buenos Aires,18.9,13,66,1014
2026-01-01 01:00,Santiago,16.5,11
2026-01-01 01:00,Santiago,16.5,11
2026-01-01 01:00,Buenos Aires,18.9,13,66,1014
2026-01-01 01:00,Santiago,16.5,11
2026-01-01 00:00,Lima,21.0,10,82,1012
2026-01-01 00:00,Bogotá,14.5,8,72,1017
2026-01-01 01:00,São Paulo,23.0,8,79,1010
2026-01-01 01:00,Buenos Aires,18.9,13,66,1014
2026-01-01 01:00,Santiago,16.5,11
2026-01-01 00:00,Buenos Aires,19.2,14,65,1013
2026-01-01 00:00,Santiago,16.8,12,58,1015
2026-01-01 00:00,Lima,21.0,10,82,1012
2026-01-01 00:00,Bogotá,14.5,8,72,1017
2026-01-01 01:00,São Paulo,23.0,8,79,1010
2026-01-01 01:00,Buenos Aires,18.9,13,66,1014
2026-01-01 01:00,Santiago,16.5,11